Belmont, Massachusetts
Current Conditions -  °F | °C
As of 10:39 PM on Monday 22 Dec 2014 (Local Time) from KBED Reporting Station
Haze Haze  
Wind Chill: 36°   Ceiling: 200
Heat Index: 36°   Visibility: 1.7mi
Dew Point: 36°   Wind: 0mph
Humidity: 100%   Direction: NA
Pressure: 30.31"   Gusts: NA
Location:  42.4°N, 71.18°W
Report Text: KBED 230339Z 00000KT 1 3/4SM BR OVC002 02/02 A3031 RMK AO2 T00220022
Loading
Personal Weather Stations






























Interactive Weather Map New forecast layout! Learn more

10-Day Weather Forecast

Advertisements
Track Severe Weather on mobile